Webcam Castelli Romani more information Webcam Castelli Romani


Webcam Traffico live more information Webcam Traffico live


altri nostri siti meteo:

Rischio IncendiRischio Incendi

Meteo-CloudBanner Meteo-Cloud

Pomeziameteo 1Sito sul meteo

Pomeziameteo DashboardSito sul meteo

Caput FrigorisSito sul meteo

BarcellonameteoSito sul meteo

MeteoipassiSito sul meteo

ViterbometeoSito sul meteo

TortoretometeolidoSito sul meteo

MeteospinacetoSito sul meteo

MeteoardeaSito sul meteo

MeteopalestrinaSito sul meteo

MeteocastelliSito sul meteo

MeteoiserniaSito sul meteo

RomaeurmeteoSito sul meteo

MeteomarconiaSito sul meteo

CastelnuovovomanometeoSito sul meteo

MeteogonzagaSito sul meteo

MeteonetworkInvio dai a Meteonetwork

Rete Linea MeteoInvio dai a Meteonetwork

DesotermicaBanner Desotermica



Alta temperatura estrema Da: 20-08-2019 06:00 Fino a: 17:59 Avvertimento per: Alta temperatura estrema Livello: Giallo info button

Report METAR

   
LIRE - Pratica Di Mare(, Italy
Distanza dalla stazione: W 9 km
Dati ricevuti: 20-08-2019 08:55
Sereno  
Sereno  
   Vento: Nord 7.4 km/h
Vento: Nord 7.4 km/h
Temperatura: 25°C
P.to Rugiada: 15°C
Umidita: 54%
Barometro: 1016 hPa
Visibilita: oltre 10 km
dettagli cloud: Sereno
LIRE 200655Z 36004KT CAVOK 25/15 Q1016 RMK SKC VIS MIN 9999 WIND THR13 35004KT WIND THR31 /////KT BLU
LIRA - Ciampino(It-Afb/, Italy
Distanza dalla stazione: NE 16 km
Dati ricevuti: 20-08-2019 09:20
Sereno  
Sereno  
   Vento: NE 7.4 km/h
Vento: NE 7.4 km/h
Temperatura: 25°C
P.to Rugiada: 14°C
Umidita: 51%
Barometro: 1017 hPa
Visibilita: oltre 10 km
dettagli cloud: Sereno
LIRA 200720Z 02004KT CAVOK 25/14 Q1017
LIRF - Rome/Fiumicino, Italy
Distanza dalla stazione: W 27 km
Dati ricevuti: 20-08-2019 09:20
Sereno  
Sereno  
   Vento: NO 7.4 km/h
Vento: NO 7.4 km/h
Temperatura: 26°C
P.to Rugiada: 17°C
Umidita: 58%
Barometro: 1016 hPa
Visibilita: oltre 10 km
dettagli cloud: Sereno
LIRF 200720Z 32004KT CAVOK 26/17 Q1016 NOSIG
LIRU - Rome/Urbe (it-Af, Italy
Distanza dalla stazione: N 31 km
Dati ricevuti: 20-08-2019 08:50
Sereno  
Sereno  
   Vento: Variabile 5.6 km/h
Vento: Variabile 5.6 km/h
Temperatura: 23°C
P.to Rugiada: 16°C
Umidita: 65%
Barometro: 1017 hPa
Visibilita: oltre 10 km
dettagli cloud: Sereno
LIRU 200650Z VRB03KT CAVOK 23/16 Q1017
LIRL - Latina (it-Afb), Italy
Distanza dalla stazione: SE 36 km
Dati ricevuti: 20-08-2019 08:55
Sereno  
Sereno  
   Vento: Sud 1.9 km/h
Vento: Sud 1.9 km/h
Temperatura: 26°C
P.to Rugiada: 17°C
Umidita: 58%
Barometro: 1016 hPa
Visibilita: oltre 10 km
dettagli cloud: Sereno
LIRL 200655Z 17001KT CAVOK 26/17 Q1016 RMK SKC MON LIB NC VIS MIN 9999 WIND THR12 00000KT WIND THR30 18001KT BLU
LIRG - Guidonia (it-Afb, Italy
Distanza dalla stazione: NE 41 km
Dati ricevuti: 20-08-2019 08:55
Sereno  
Sereno  
   Vento: SE 1.9 km/h
Vento: SE 1.9 km/h
Temperatura: 25°C
P.to Rugiada: 17°C
Umidita: 61%
Barometro: 1017 hPa
Visibilita: oltre 10 km
dettagli cloud: Sereno
LIRG 200655Z 14001KT CAVOK 25/17 Q1017

Script sviluppato da  Saratoga-weather.org Adattato per il modello da  Weerstation Leuven

Potete trovare le nostre info meteo anche a:

European Weather Network

Weather Underground

AWEKAS

Citizen Weather Observer Program (CWOP)

HAMweather, WeatherForYou, PWS Weather

Strumentazione usata:

Stazione meteo
Davis VP2

Programma gestore dati meteo
WVIEW

Server per i dati meteo
Pc-WDS5

Provider
PC-HP-6005

Davis VP2

WVIEW

Pc-WDS5

PC-HP-6005